createdAt,value
2019-04-05T00:00:54.208Z,14.63
2019-04-05T00:03:23.560Z,12.53
2019-04-05T00:05:52.901Z,13.37
2019-04-05T00:08:22.325Z,13.00
2019-04-05T00:10:51.694Z,13.93
2019-04-05T00:13:21.036Z,13.63
2019-04-05T00:15:50.400Z,12.70
2019-04-05T00:18:19.765Z,15.67
2019-04-05T00:20:49.170Z,13.53
2019-04-05T00:23:18.564Z,13.03
2019-04-05T00:25:47.908Z,15.07
2019-04-05T00:28:17.254Z,13.40
2019-04-05T00:30:46.623Z,13.17
2019-04-05T00:33:16.150Z,15.13
2019-04-05T00:35:45.543Z,15.30
2019-04-05T00:38:14.896Z,13.57
2019-04-05T00:40:44.244Z,13.63
2019-04-05T00:43:13.624Z,14.60
2019-04-05T00:45:43.021Z,15.73
2019-04-05T00:48:12.405Z,14.83
2019-04-05T00:50:41.776Z,14.63
2019-04-05T00:53:11.102Z,15.23
2019-04-05T00:55:40.486Z,13.30
2019-04-05T00:58:09.836Z,15.77
2019-04-05T01:00:39.205Z,18.77
2019-04-05T01:03:08.585Z,14.90
2019-04-05T01:05:37.976Z,17.57
2019-04-05T01:08:07.348Z,14.70
2019-04-05T01:10:55.768Z,15.57
2019-04-05T01:13:25.657Z,14.80
2019-04-05T01:15:55.035Z,17.53
2019-04-05T01:18:24.414Z,17.40
2019-04-05T01:20:56.239Z,18.40
2019-04-05T01:23:26.256Z,16.80
2019-04-05T01:25:57.606Z,17.43
2019-04-05T01:28:27.065Z,18.83
2019-04-05T01:30:56.428Z,17.27
2019-04-05T01:33:25.874Z,15.67
2019-04-05T01:35:55.247Z,16.17
2019-04-05T01:38:24.563Z,16.10
2019-04-05T01:40:55.485Z,16.93
2019-04-05T01:43:24.819Z,15.93
2019-04-05T01:45:55.816Z,16.83
2019-04-05T01:48:25.172Z,16.00
2019-04-05T01:50:54.588Z,16.77
2019-04-05T01:53:23.963Z,21.43
2019-04-05T01:55:53.282Z,19.33
2019-04-05T01:58:22.651Z,16.23
2019-04-05T02:00:52.000Z,16.50
2019-04-05T02:03:21.413Z,21.07
2019-04-05T02:05:50.741Z,24.23
2019-04-05T02:08:20.294Z,20.20
2019-04-05T02:10:49.620Z,21.37
2019-04-05T02:13:18.986Z,23.23
2019-04-05T02:15:48.346Z,20.13
2019-04-05T02:18:17.757Z,27.30
2019-04-05T02:20:47.085Z,26.07
2019-04-05T02:23:16.465Z,26.00
2019-04-05T02:25:45.812Z,30.53
2019-04-05T02:28:15.176Z,23.20
2019-04-05T02:30:44.513Z,28.57
2019-04-05T02:33:13.880Z,27.37
2019-04-05T02:35:43.326Z,23.13
2019-04-05T02:38:12.715Z,27.43
2019-04-05T02:40:42.656Z,24.33
2019-04-05T02:43:14.954Z,26.93
2019-04-05T02:45:48.598Z,21.97
2019-04-05T02:48:20.401Z,23.77
2019-04-05T02:50:52.865Z,23.03
2019-04-05T02:53:23.143Z,19.30
2019-04-05T02:55:53.502Z,24.93
2019-04-05T02:58:23.924Z,28.40
2019-04-05T03:00:53.634Z,24.10
2019-04-05T03:03:23.256Z,23.10
2019-04-05T03:05:52.665Z,21.53
2019-04-05T03:08:22.015Z,25.17
2019-04-05T03:11:04.108Z,22.60
2019-04-05T03:13:36.728Z,22.43
2019-04-05T03:16:09.723Z,22.20
2019-04-05T03:18:42.667Z,21.30
2019-04-05T03:21:12.812Z,22.63
2019-04-05T03:23:44.173Z,24.17
2019-04-05T03:26:17.122Z,29.13
2019-04-05T03:28:49.858Z,33.47
2019-04-05T03:31:24.324Z,24.40
2019-04-05T03:33:51.532Z,25.33
2019-04-05T03:36:20.937Z,26.10
2019-04-05T03:38:51.607Z,25.43
2019-04-05T03:41:21.097Z,29.67
2019-04-05T03:43:51.000Z,31.30
2019-04-05T03:46:20.673Z,33.77
2019-04-05T03:48:50.604Z,27.97
2019-04-05T03:51:20.056Z,33.37
2019-04-05T03:53:49.377Z,33.43
2019-04-05T03:56:19.066Z,29.30
2019-04-05T03:58:48.758Z,31.30
2019-04-05T04:01:18.220Z,29.83
2019-04-05T04:03:48.010Z,30.57
2019-04-05T04:06:17.631Z,31.23
2019-04-05T04:08:47.169Z,34.50
2019-04-05T04:11:16.693Z,33.30
2019-04-05T04:13:46.242Z,29.53
2019-04-05T04:16:15.907Z,29.37
2019-04-05T04:18:45.662Z,27.87
2019-04-05T04:21:39.440Z,29.73
2019-04-05T04:24:10.043Z,24.80
2019-04-05T04:26:40.266Z,26.60
2019-04-05T04:29:10.036Z,23.90
2019-04-05T04:31:39.893Z,28.83
2019-04-05T04:34:09.901Z,26.77
2019-04-05T04:36:39.736Z,28.80
2019-04-05T04:39:09.249Z,22.93
2019-04-05T04:41:38.808Z,26.27
2019-04-05T04:44:08.881Z,27.83
2019-04-05T04:46:38.403Z,32.40
2019-04-05T04:49:07.984Z,24.00
2019-04-05T04:51:38.279Z,25.27
2019-04-05T04:54:08.008Z,20.77
2019-04-05T04:56:37.547Z,28.57
2019-04-05T04:59:07.447Z,23.57
2019-04-05T05:01:37.285Z,25.70
2019-04-05T05:04:08.392Z,31.37
2019-04-05T05:06:38.125Z,26.67
2019-04-05T05:09:08.321Z,23.47
2019-04-05T05:11:38.391Z,31.07
2019-04-05T05:14:08.050Z,27.98
2019-04-05T05:16:37.740Z,26.13
2019-04-05T05:19:07.105Z,31.10
2019-04-05T05:21:36.773Z,32.85
2019-04-05T05:24:06.545Z,23.67
2019-04-05T05:26:35.969Z,26.60
2019-04-05T05:29:05.630Z,23.07
2019-04-05T05:31:35.092Z,28.57
2019-04-05T05:34:04.996Z,27.83
2019-04-05T05:36:34.353Z,26.30
2019-04-05T05:39:05.597Z,23.63
2019-04-05T05:41:35.096Z,26.80
2019-04-05T05:44:04.805Z,27.23
2019-04-05T05:46:37.424Z,23.43
2019-04-05T05:49:06.992Z,21.90
2019-04-05T05:51:36.462Z,24.33
2019-04-05T05:54:05.999Z,23.87
2019-04-05T05:56:35.490Z,22.83
2019-04-05T05:59:04.900Z,23.37
2019-04-05T06:01:34.276Z,27.07
2019-04-05T06:04:03.652Z,23.70
2019-04-05T06:06:32.984Z,27.67
2019-04-05T06:09:02.360Z,22.53
2019-04-05T06:11:31.758Z,24.83
2019-04-05T06:14:01.116Z,22.70
2019-04-05T06:16:30.453Z,24.57
2019-04-05T06:18:59.835Z,24.13
2019-04-05T06:21:29.161Z,31.23
2019-04-05T06:23:58.547Z,20.27
2019-04-05T06:26:27.904Z,26.30
2019-04-05T06:28:57.249Z,24.83
2019-04-05T06:31:26.590Z,24.27
2019-04-05T06:33:55.927Z,24.70
2019-04-05T06:36:25.264Z,35.57
2019-04-05T06:38:54.617Z,26.67
2019-04-05T06:41:23.992Z,29.07
2019-04-05T06:43:53.378Z,26.67
2019-04-05T06:46:22.731Z,26.93
2019-04-05T06:48:52.050Z,28.03
2019-04-05T06:51:21.417Z,25.83
2019-04-05T06:53:50.767Z,26.43
2019-04-05T06:56:20.109Z,20.60
2019-04-05T06:58:49.432Z,26.87
2019-04-05T07:01:18.817Z,32.03
2019-04-05T07:03:48.158Z,24.77
2019-04-05T07:06:17.500Z,23.80
2019-04-05T07:08:53.524Z,27.17
2019-04-05T07:11:17.911Z,24.90
2019-04-05T07:13:47.261Z,25.67
2019-04-05T07:16:16.655Z,26.70
2019-04-05T07:18:46.024Z,27.63
2019-04-05T07:21:17.298Z,24.83
2019-04-05T07:23:46.476Z,28.23
2019-04-05T07:26:15.812Z,23.30
2019-04-05T07:28:45.189Z,27.37
2019-04-05T07:31:14.661Z,29.03
2019-04-05T07:33:44.062Z,25.80
2019-04-05T07:36:13.415Z,23.33
2019-04-05T07:38:42.779Z,30.43
2019-04-05T07:41:12.147Z,24.60
2019-04-05T07:43:41.484Z,26.73
2019-04-05T07:46:10.811Z,26.83
2019-04-05T07:48:44.982Z,24.33
2019-04-05T07:51:11.346Z,24.57
2019-04-05T07:53:40.698Z,24.17
2019-04-05T07:56:10.012Z,21.97
2019-04-05T07:58:39.345Z,23.43
2019-04-05T08:01:08.869Z,24.83
2019-04-05T08:03:38.231Z,24.83
2019-04-05T08:06:07.566Z,22.00
2019-04-05T08:08:52.338Z,22.03
2019-04-05T08:11:23.204Z,23.63
2019-04-05T08:13:55.185Z,22.23
2019-04-05T08:16:24.572Z,25.20
2019-04-05T08:18:58.096Z,20.73
2019-04-05T08:21:24.984Z,22.17
2019-04-05T08:23:54.345Z,22.57
2019-04-05T08:26:23.658Z,20.00
2019-04-05T08:28:53.043Z,22.33
2019-04-05T08:31:22.455Z,17.63
2019-04-05T08:33:51.810Z,17.73
2019-04-05T08:36:21.133Z,17.60
2019-04-05T08:38:50.494Z,16.70
2019-04-05T08:41:19.815Z,18.17
2019-04-05T08:43:49.160Z,17.33
2019-04-05T08:46:18.488Z,17.33
2019-04-05T08:48:47.867Z,19.10
2019-04-05T08:51:17.267Z,18.47
2019-04-05T08:53:46.595Z,18.43
2019-04-05T08:56:15.925Z,17.50
2019-04-05T08:58:45.269Z,20.43
2019-04-05T09:01:14.668Z,19.87
2019-04-05T09:03:44.044Z,18.20
2019-04-05T09:06:13.500Z,18.17
2019-04-05T09:08:42.842Z,16.67
2019-04-05T09:11:12.200Z,20.33
2019-04-05T09:13:41.532Z,18.30
2019-04-05T09:16:11.872Z,16.07
2019-04-05T09:18:41.428Z,16.67
2019-04-05T09:21:10.800Z,17.70
2019-04-05T09:23:40.129Z,16.63
2019-04-05T09:26:09.459Z,16.70
2019-04-05T09:28:38.838Z,13.87
2019-04-05T09:31:08.216Z,14.43
2019-04-05T09:33:37.593Z,13.87
2019-04-05T09:36:06.956Z,11.53
2019-04-05T09:38:36.289Z,14.77
2019-04-05T09:41:05.740Z,10.97
2019-04-05T09:43:35.073Z,12.67
2019-04-05T09:46:04.534Z,11.40
2019-04-05T09:48:33.903Z,10.77
2019-04-05T09:51:03.272Z,8.20
2019-04-05T09:53:32.630Z,7.57
2019-04-05T09:56:02.031Z,8.23
2019-04-05T09:58:31.357Z,8.50
2019-04-05T10:01:00.687Z,9.77
2019-04-05T10:03:30.058Z,7.73
2019-04-05T10:05:59.384Z,7.93
2019-04-05T10:08:28.732Z,6.80
2019-04-05T10:10:58.382Z,6.77
2019-04-05T10:13:27.713Z,8.70
2019-04-05T10:15:57.077Z,4.47
2019-04-05T10:18:26.512Z,6.60
2019-04-05T10:20:55.857Z,7.23
2019-04-05T10:23:25.224Z,6.67
2019-04-05T10:25:54.656Z,9.70
2019-04-05T10:28:23.989Z,7.50
2019-04-05T10:30:53.422Z,7.77
2019-04-05T10:33:23.124Z,6.37
2019-04-05T10:35:52.431Z,8.17
2019-04-05T10:38:21.778Z,8.33
2019-04-05T10:40:51.101Z,8.43
2019-04-05T10:43:20.475Z,10.70
2019-04-05T10:45:49.837Z,8.23
2019-04-05T10:48:19.206Z,8.50
2019-04-05T10:50:48.545Z,10.33
2019-04-05T10:53:17.920Z,9.17
2019-04-05T10:55:47.321Z,9.07
2019-04-05T10:58:16.690Z,11.30
2019-04-05T11:00:46.029Z,10.17
2019-04-05T11:03:15.397Z,11.97
2019-04-05T11:05:44.740Z,11.50
2019-04-05T11:08:14.106Z,10.23
2019-04-05T11:10:43.491Z,11.03
2019-04-05T11:13:12.857Z,10.10
2019-04-05T11:15:42.206Z,12.00
2019-04-05T11:18:11.612Z,11.67
2019-04-05T11:20:40.982Z,9.80
2019-04-05T11:23:10.304Z,8.90
2019-04-05T11:25:39.676Z,9.60
2019-04-05T11:28:09.021Z,9.87
2019-04-05T11:30:43.993Z,12.60
2019-04-05T11:33:13.479Z,9.33
2019-04-05T11:35:43.231Z,10.37
2019-04-05T11:38:14.016Z,10.87
2019-04-05T11:40:43.922Z,11.20
2019-04-05T11:43:58.502Z,13.90
2019-04-05T11:46:31.959Z,10.17
2019-04-05T11:49:03.843Z,11.30
2019-04-05T11:51:34.275Z,12.10
2019-04-05T11:54:03.914Z,13.83
2019-04-05T11:56:33.520Z,12.03
2019-04-05T11:59:05.046Z,11.43
2019-04-05T12:01:43.486Z,12.67
2019-04-05T12:04:13.094Z,12.67
2019-04-05T12:06:42.683Z,10.90
2019-04-05T12:09:18.007Z,10.23
2019-04-05T12:11:47.531Z,13.40
2019-04-05T12:14:29.574Z,13.23
2019-04-05T12:16:48.538Z,12.00
2019-04-05T12:19:18.103Z,14.67
2019-04-05T12:21:47.873Z,13.73
2019-04-05T12:24:17.420Z,13.00
2019-04-05T12:26:47.017Z,15.13
2019-04-05T12:29:16.612Z,18.87
2019-04-05T12:31:46.704Z,24.27
2019-04-05T12:34:16.743Z,17.40
2019-04-05T12:36:46.425Z,19.90
2019-04-05T12:39:15.948Z,15.27
2019-04-05T12:41:45.442Z,17.57
2019-04-05T12:44:15.558Z,17.07
2019-04-05T12:46:45.905Z,17.47
2019-04-05T12:49:15.858Z,18.97
2019-04-05T12:51:46.191Z,16.10
2019-04-05T12:54:16.079Z,16.77
2019-04-05T12:56:45.571Z,20.00
2019-04-05T12:59:15.078Z,18.37
2019-04-05T13:01:45.529Z,18.00
2019-04-05T13:04:15.707Z,16.90
2019-04-05T13:06:45.151Z,18.03
2019-04-05T13:09:14.944Z,18.33
2019-04-05T13:11:47.804Z,18.23
2019-04-05T13:18:03.081Z,19.03
2019-04-05T13:20:32.800Z,18.70
2019-04-05T13:23:06.320Z,23.07
2019-04-05T13:25:33.862Z,18.57
2019-04-05T13:28:12.710Z,20.73
2019-04-05T13:30:34.701Z,17.97
2019-04-05T13:33:04.144Z,21.13
2019-04-05T13:35:33.622Z,23.73
2019-04-05T13:38:03.629Z,21.37
2019-04-05T13:40:33.272Z,19.37
2019-04-05T13:43:03.367Z,21.23
2019-04-05T13:45:32.905Z,18.60
2019-04-05T13:48:02.693Z,26.27
2019-04-05T13:50:32.337Z,15.67
2019-04-05T13:53:01.916Z,19.10
2019-04-05T13:55:31.433Z,21.00
2019-04-05T13:58:01.155Z,20.40
2019-04-05T14:00:30.867Z,20.10
2019-04-05T14:03:00.593Z,20.83
2019-04-05T14:05:30.148Z,25.03
2019-04-05T14:08:09.854Z,19.37
2019-04-05T14:10:32.917Z,21.63
2019-04-05T14:13:07.651Z,20.67
2019-04-05T14:15:41.799Z,22.67
2019-04-05T14:18:09.440Z,25.53
2019-04-05T14:20:39.009Z,21.27
2019-04-05T14:23:08.740Z,23.37
2019-04-05T14:25:38.664Z,23.53
2019-04-05T14:28:08.142Z,21.40
2019-04-05T14:30:37.707Z,20.70
2019-04-05T14:33:07.247Z,25.13
2019-04-05T14:35:36.995Z,23.10
2019-04-05T14:38:06.476Z,20.83
2019-04-05T14:40:36.126Z,21.10
2019-04-05T14:43:05.847Z,19.27
2019-04-05T14:45:35.962Z,27.37
2019-04-05T14:48:05.617Z,21.97
2019-04-05T14:50:35.077Z,20.07
2019-04-05T14:53:06.013Z,21.80
2019-04-05T14:55:35.611Z,19.47
2019-04-05T14:58:06.044Z,24.07
2019-04-05T15:00:36.046Z,23.30
2019-04-05T15:03:07.188Z,23.77
2019-04-05T15:05:36.694Z,23.57
2019-04-05T15:08:06.263Z,23.20
2019-04-05T15:10:36.792Z,24.30
2019-04-05T15:13:06.344Z,22.40
2019-04-05T15:15:35.956Z,21.43
2019-04-05T15:18:05.682Z,20.23
2019-04-05T15:20:35.541Z,25.40
2019-04-05T15:23:05.102Z,22.00
2019-04-05T15:25:34.755Z,22.77
2019-04-05T15:28:04.257Z,22.37
2019-04-05T15:30:33.647Z,27.27
2019-04-05T15:33:04.765Z,24.27
2019-04-05T15:35:34.343Z,21.97
2019-04-05T15:38:03.895Z,21.97
2019-04-05T15:40:33.574Z,28.03
2019-04-05T15:43:03.138Z,25.80
2019-04-05T15:45:33.019Z,25.90
2019-04-05T15:48:02.763Z,22.33
2019-04-05T15:50:32.297Z,20.87
2019-04-05T15:53:02.337Z,22.90
2019-04-05T15:55:34.280Z,20.73
2019-04-05T15:58:04.487Z,24.53
2019-04-05T16:00:44.118Z,25.97
2019-04-05T16:03:14.648Z,26.93
2019-04-05T16:05:45.650Z,27.30
2019-04-05T16:08:18.047Z,28.23
2019-04-05T16:10:47.851Z,26.17
2019-04-05T16:13:17.756Z,25.23
2019-04-05T16:15:51.850Z,33.07
2019-04-05T16:18:21.488Z,27.53
2019-04-05T16:20:55.409Z,22.33
2019-04-05T16:23:41.741Z,23.73
2019-04-05T16:30:11.219Z,25.40
2019-04-05T16:32:43.927Z,31.10
2019-04-05T16:35:14.810Z,33.67
2019-04-05T16:37:44.763Z,26.43
2019-04-05T16:40:31.360Z,20.60
2019-04-05T16:43:02.827Z,23.90
2019-04-05T16:45:32.622Z,23.20
2019-04-05T16:48:02.631Z,22.43
2019-04-05T16:50:32.487Z,22.87
2019-04-05T16:53:01.964Z,25.40
2019-04-05T16:55:31.698Z,23.20
2019-04-05T16:58:01.304Z,23.60
2019-04-05T17:00:30.784Z,21.97
2019-04-05T17:03:00.555Z,19.10
2019-04-05T17:05:30.152Z,23.67
2019-04-05T17:07:59.838Z,25.20
2019-04-05T17:10:29.489Z,25.37
2019-04-05T17:12:59.282Z,25.97
2019-04-05T17:15:28.748Z,23.23
2019-04-05T17:17:58.214Z,22.53
2019-04-05T17:20:27.849Z,23.20
2019-04-05T17:22:58.809Z,20.53
2019-04-05T17:25:28.497Z,24.20
2019-04-05T17:27:58.100Z,21.73
2019-04-05T17:31:14.933Z,21.87
2019-04-05T17:33:44.484Z,22.47
2019-04-05T17:36:23.240Z,22.13
2019-04-05T17:39:25.322Z,20.57
2019-04-05T17:41:55.747Z,20.03
2019-04-05T17:44:25.330Z,20.10
2019-04-05T17:46:55.029Z,20.40
2019-04-05T17:49:24.553Z,22.93
2019-04-05T17:51:54.205Z,24.90
2019-04-05T17:54:23.648Z,22.63
2019-04-05T17:56:53.332Z,20.40
2019-04-05T17:59:22.828Z,25.50
2019-04-05T18:01:52.334Z,21.90
2019-04-05T18:04:21.771Z,20.60
2019-04-05T18:06:51.982Z,22.93
2019-04-05T18:09:21.690Z,16.73
2019-04-05T18:11:51.271Z,21.23
2019-04-05T18:14:20.693Z,22.17
2019-04-05T18:16:50.240Z,22.13
2019-04-05T18:19:19.837Z,16.80
2019-04-05T18:21:49.825Z,19.27
2019-04-05T18:24:19.410Z,23.83
2019-04-05T18:26:48.966Z,27.00
2019-04-05T18:29:18.757Z,25.30
2019-04-05T18:31:48.418Z,21.30
2019-04-05T18:34:17.962Z,26.00
2019-04-05T18:36:48.544Z,24.57
2019-04-05T18:39:18.142Z,27.27
2019-04-05T18:41:47.757Z,22.87
2019-04-05T18:44:17.487Z,21.70
2019-04-05T18:46:47.085Z,24.07
2019-04-05T18:49:16.735Z,22.43
2019-04-05T18:51:46.403Z,19.00
2019-04-05T18:54:16.044Z,23.53
2019-04-05T18:56:45.781Z,24.07
2019-04-05T18:59:15.408Z,27.67
2019-04-05T19:01:45.019Z,28.67
2019-04-05T19:04:14.670Z,29.77
2019-04-05T19:06:44.311Z,26.83
2019-04-05T19:09:13.913Z,28.43
2019-04-05T19:11:43.544Z,26.17
2019-04-05T19:14:13.244Z,23.57
2019-04-05T19:16:43.010Z,29.77
2019-04-05T19:19:12.751Z,24.73
2019-04-05T19:21:42.405Z,21.57
2019-04-05T19:24:12.038Z,23.13
2019-04-05T19:26:41.651Z,27.87
2019-04-05T19:29:11.248Z,23.93
2019-04-05T19:49:20.090Z,29.97
2019-04-05T19:51:49.802Z,31.77
2019-04-05T19:54:19.529Z,32.27
2019-04-05T19:56:49.195Z,28.80
2019-04-05T19:59:18.846Z,28.07
2019-04-05T20:01:48.543Z,27.77
2019-04-05T20:04:18.235Z,30.93
2019-04-05T20:06:57.898Z,29.57
2019-04-05T20:09:20.601Z,27.13
2019-04-05T20:11:50.303Z,28.87
2019-04-05T20:14:19.913Z,30.53
2019-04-05T20:16:49.692Z,26.37
2019-04-05T20:19:19.500Z,27.27
2019-04-05T20:21:49.240Z,35.33
2019-04-05T20:24:18.948Z,27.50
2019-04-05T20:26:48.793Z,29.47
2019-04-05T20:29:18.417Z,32.73
2019-04-05T20:31:48.153Z,42.20
2019-04-05T20:34:17.808Z,32.70
2019-04-05T20:36:47.539Z,34.60
2019-04-05T20:39:17.247Z,36.83
2019-04-05T20:41:46.921Z,31.20
2019-04-05T20:44:16.564Z,32.83
2019-04-05T20:46:46.186Z,28.67
2019-04-05T20:49:15.851Z,26.83
2019-04-05T20:51:45.521Z,35.13
2019-04-05T20:54:24.234Z,36.17
2019-04-05T20:56:46.667Z,36.03
2019-04-05T20:59:16.240Z,37.83
2019-04-05T21:01:45.996Z,37.47
2019-04-05T21:04:15.756Z,31.17
2019-04-05T21:06:45.473Z,31.37
2019-04-05T21:09:15.098Z,30.80
2019-04-05T21:11:44.750Z,44.80
2019-04-05T21:14:14.407Z,30.90
2019-04-05T21:16:44.012Z,35.80
2019-04-05T21:19:13.673Z,29.83
2019-04-05T21:21:43.303Z,37.37
2019-04-05T21:24:13.138Z,29.90
2019-04-05T21:26:42.731Z,34.67
2019-04-05T21:29:12.425Z,34.57
2019-04-05T21:31:42.119Z,35.33
2019-04-05T21:34:11.760Z,39.97
2019-04-05T21:36:41.585Z,34.90
2019-04-05T21:39:11.287Z,31.13
2019-04-05T21:41:41.063Z,43.63
2019-04-05T21:44:11.287Z,41.50
2019-04-05T21:46:40.789Z,37.30
2019-04-05T21:49:10.406Z,34.43
2019-04-05T21:51:39.789Z,37.07
2019-04-05T21:54:09.422Z,37.17
2019-04-05T21:56:39.082Z,37.63
2019-04-05T21:59:08.859Z,37.93
2019-04-05T22:01:38.546Z,39.57
2019-04-05T22:04:08.358Z,40.63
2019-04-05T22:06:38.097Z,34.30
2019-04-05T22:09:10.296Z,44.47
2019-04-05T22:11:40.215Z,40.70
2019-04-05T22:14:09.990Z,46.50
2019-04-05T22:16:39.789Z,40.10
2019-04-05T22:19:09.576Z,41.70
2019-04-05T22:21:39.368Z,40.57
2019-04-05T22:24:12.065Z,33.50
2019-04-05T22:26:41.824Z,31.17
2019-04-05T22:29:11.463Z,33.80
2019-04-05T22:31:41.243Z,36.47
2019-04-05T22:34:10.829Z,39.70
2019-04-05T22:36:40.406Z,40.50
2019-04-05T22:39:10.098Z,35.63
2019-04-05T22:41:39.852Z,35.17
2019-04-05T22:44:09.649Z,36.23
2019-04-05T22:46:39.644Z,33.03
2019-04-05T22:49:09.478Z,32.67
2019-04-05T22:51:39.263Z,33.67
2019-04-05T22:54:08.978Z,36.87
2019-04-05T22:56:38.774Z,35.90
2019-04-05T22:59:08.482Z,32.23
2019-04-05T23:01:38.104Z,33.83
2019-04-05T23:04:07.951Z,30.87
2019-04-05T23:06:37.845Z,30.90
2019-04-05T23:09:08.142Z,30.90
2019-04-05T23:11:37.930Z,28.20
2019-04-05T23:14:07.679Z,30.70
2019-04-05T23:16:37.353Z,29.57
2019-04-05T23:19:07.011Z,30.57
2019-04-05T23:21:36.845Z,44.33
2019-04-05T23:24:07.891Z,33.97
2019-04-05T23:26:37.547Z,29.63
2019-04-05T23:29:07.205Z,30.80
2019-04-05T23:31:36.845Z,28.33
2019-04-05T23:34:06.673Z,33.27
2019-04-05T23:36:36.406Z,29.97
2019-04-05T23:39:07.068Z,37.57
2019-04-05T23:41:36.839Z,30.47
2019-04-05T23:44:06.577Z,34.80
2019-04-05T23:46:36.224Z,32.90
2019-04-05T23:49:05.930Z,32.23
2019-04-05T23:51:35.626Z,37.20
2019-04-05T23:54:05.245Z,47.13
2019-04-05T23:56:34.884Z,45.73
2019-04-05T23:59:04.465Z,49.53
